createdAt,value
2015-09-06T00:03:16.565Z,15.6
2015-09-06T00:08:19.231Z,15.6
2015-09-06T00:13:21.928Z,15.5
2015-09-06T00:18:24.751Z,15.6
2015-09-06T00:23:26.495Z,15.5
2015-09-06T00:28:28.833Z,15.4
2015-09-06T00:33:31.062Z,15.4
2015-09-06T00:38:33.384Z,15.3
2015-09-06T00:43:35.596Z,15.2
2015-09-06T00:48:37.450Z,13.9
2015-09-06T00:53:40.100Z,12.9
2015-09-06T00:58:42.360Z,13.3
2015-09-06T01:03:44.838Z,12.6
2015-09-06T01:08:47.958Z,12.9
2015-09-06T01:13:50.202Z,13.2
2015-09-06T01:18:53.366Z,14.2
2015-09-06T01:22:23.593Z,14.3
2015-09-06T01:27:27.008Z,12.8
2015-09-06T01:32:28.862Z,12.9
2015-09-06T01:37:30.544Z,14.2
2015-09-06T01:42:32.726Z,14.4
2015-09-06T01:47:34.408Z,14.2
2015-09-06T01:52:37.010Z,14.3
2015-09-06T01:57:38.675Z,14.3
2015-09-06T02:02:40.842Z,14.4
2015-09-06T02:07:43.007Z,14.4
2015-09-06T02:12:45.767Z,14.2
2015-09-06T02:17:48.542Z,14.4
2015-09-06T02:22:51.553Z,14.2
2015-09-06T02:27:52.968Z,14.4
2015-09-06T02:32:56.680Z,14.4
2015-09-06T02:37:58.879Z,14.4
2015-09-06T02:43:01.060Z,14.4
2015-09-06T02:48:03.227Z,14.4
2015-09-06T02:53:05.361Z,14.3
2015-09-06T02:58:07.479Z,14.3
2015-09-06T03:03:09.193Z,14.4
2015-09-06T03:08:11.890Z,14.4
2015-09-06T03:13:13.679Z,14.4
2015-09-06T03:18:16.085Z,14.2
2015-09-06T03:23:18.329Z,14.3
2015-09-06T03:28:20.650Z,14.2
2015-09-06T03:33:22.806Z,14.1
2015-09-06T03:38:24.949Z,14.2
2015-09-06T03:43:26.899Z,14.1
2015-09-06T03:48:29.424Z,13.9
2015-09-06T03:53:31.168Z,13.9
2015-09-06T03:58:33.882Z,13.9
2015-09-06T04:03:35.720Z,13.9
2015-09-06T04:08:37.917Z,13.8
2015-09-06T04:13:40.005Z,13.8
2015-09-06T04:18:42.184Z,13.7
2015-09-06T04:23:44.351Z,13.5
2015-09-06T04:28:46.595Z,13.6
2015-09-06T04:33:48.667Z,13.6
2015-09-06T04:38:50.334Z,13.6
2015-09-06T04:43:52.531Z,13.5
2015-09-06T04:48:55.040Z,13.6
2015-09-06T04:53:57.347Z,13.6
2015-09-06T04:58:59.419Z,13.6
2015-09-06T05:04:01.585Z,13.4
2015-09-06T05:09:03.705Z,13.6
2015-09-06T05:14:05.870Z,13.4
2015-09-06T05:19:08.849Z,13.4
2015-09-06T05:24:10.562Z,13.4
2015-09-06T05:29:12.713Z,13.6
2015-09-06T05:34:15.142Z,14.1
2015-09-06T05:39:18.575Z,13.6
2015-09-06T05:44:19.646Z,14.1
2015-09-06T05:49:22.172Z,13.8
2015-09-06T05:54:24.260Z,14
2015-09-06T05:59:26.004Z,13.9
2015-09-06T06:04:28.202Z,14.1
2015-09-06T06:09:30.430Z,14.6
2015-09-06T06:14:32.236Z,14.5
2015-09-06T06:19:34.215Z,14.6
2015-09-06T06:24:37.584Z,14.5
2015-09-06T06:29:40.016Z,14.3
2015-09-06T06:34:42.150Z,14.3
2015-09-06T06:39:44.207Z,14.2
2015-09-06T06:44:46.371Z,14.4
2015-09-06T06:49:48.663Z,14.4
2015-09-06T06:54:50.688Z,14.4
2015-09-06T06:59:52.370Z,14.6
2015-09-06T07:04:54.567Z,14.6
2015-09-06T07:09:57.139Z,14.6
2015-09-06T07:14:59.352Z,14.6
2015-09-06T07:20:01.456Z,14.5
2015-09-06T07:25:03.638Z,14.6
2015-09-06T07:30:05.460Z,14.6
2015-09-06T07:35:08.876Z,15.3
2015-09-06T07:40:11.354Z,15.4
2015-09-06T07:45:12.722Z,15.6
2015-09-06T07:50:15.857Z,15.6
2015-09-06T07:55:17.506Z,15.2
2015-09-06T08:00:20.579Z,15.3
2015-09-06T08:05:22.558Z,15.3
2015-09-06T08:10:24.724Z,15.5
2015-09-06T08:15:27.703Z,15.7
2015-09-06T08:20:30.744Z,15.6
2015-09-06T08:25:32.690Z,15.5
2015-09-06T08:30:34.544Z,15.7
2015-09-06T08:35:37.117Z,15.6
2015-09-06T08:40:40.736Z,15.8
2015-09-06T08:45:41.401Z,14.9
2015-09-06T08:50:43.521Z,15.4
2015-09-06T08:55:45.609Z,15.5
2015-09-06T09:00:47.759Z,15.6
2015-09-06T09:05:51.754Z,15.6
2015-09-06T09:10:54.435Z,16.2
2015-09-06T09:15:57.069Z,16
2015-09-06T09:21:00.250Z,15.8
2015-09-06T09:26:01.338Z,15.7
2015-09-06T09:31:03.504Z,15.7
2015-09-06T09:36:05.638Z,15.5
2015-09-06T09:41:07.773Z,15.3
2015-09-06T09:46:09.970Z,15.4
2015-09-06T09:51:12.105Z,15.3
2015-09-06T09:56:14.411Z,15.7
2015-09-06T10:01:17.921Z,15.9
2015-09-06T10:06:18.447Z,15.6
2015-09-06T10:11:20.988Z,15.4
2015-09-06T10:16:22.888Z,15.3
2015-09-06T10:21:25.038Z,15.6
2015-09-06T10:26:27.173Z,15.9
2015-09-06T10:31:31.012Z,15.9
2015-09-06T10:36:33.130Z,16.2
2015-09-06T10:41:35.250Z,16.1
2015-09-06T10:46:37.821Z,16.1
2015-09-06T10:51:39.330Z,16.1
2015-09-06T10:56:41.730Z,15.9
2015-09-06T11:01:43.897Z,16.1
2015-09-06T11:06:46.015Z,16.1
2015-09-06T11:11:48.182Z,16
2015-09-06T11:16:50.301Z,16.4
2015-09-06T11:21:52.420Z,16.1
2015-09-06T11:26:55.149Z,16.1
2015-09-06T11:31:57.971Z,16.2
2015-09-06T11:36:59.621Z,16.5
2015-09-06T11:42:02.116Z,16.3
2015-09-06T11:47:04.344Z,16.3
2015-09-06T11:52:06.432Z,16.3
2015-09-06T11:57:08.628Z,16.5
2015-09-06T12:02:10.435Z,16.7
2015-09-06T12:07:12.881Z,16.7
2015-09-06T12:12:14.813Z,17.2
2015-09-06T12:17:17.495Z,16.9
2015-09-06T12:22:20.099Z,17
2015-09-06T12:27:21.686Z,16.8
2015-09-06T12:32:23.963Z,16.8
2015-09-06T12:37:26.099Z,16.2
2015-09-06T12:42:28.231Z,16.1
2015-09-06T12:47:30.371Z,16.4
2015-09-06T12:52:32.522Z,16.2
2015-09-06T12:57:35.423Z,16
2015-09-06T13:02:37.902Z,16.5
2015-09-06T13:07:39.551Z,16.5
2015-09-06T13:12:41.966Z,17.1
2015-09-06T13:17:44.148Z,17.1
2015-09-06T13:22:46.329Z,17.2
2015-09-06T13:27:48.449Z,16.5
2015-09-06T13:32:50.615Z,16.7
2015-09-06T13:37:52.718Z,16.9
2015-09-06T13:42:54.416Z,17.1
2015-09-06T13:47:56.582Z,16.8
2015-09-06T13:52:59.576Z,16.9
2015-09-06T13:58:02.085Z,16.9
2015-09-06T14:03:03.548Z,17
2015-09-06T14:08:06.308Z,16.9
2015-09-06T14:13:07.787Z,17
2015-09-06T14:18:09.906Z,17.1
2015-09-06T14:23:12.040Z,17.3
2015-09-06T14:28:14.173Z,17.4
2015-09-06T14:33:15.886Z,17.2
2015-09-06T14:38:19.334Z,17.4
2015-09-06T14:43:22.547Z,17.3
2015-09-06T14:48:23.618Z,17.1
2015-09-06T14:53:25.723Z,17
2015-09-06T14:58:27.920Z,17.3
2015-09-06T15:03:30.070Z,17
2015-09-06T15:08:32.237Z,16.9
2015-09-06T15:13:34.387Z,17.1
2015-09-06T15:18:36.100Z,17.2
2015-09-06T15:23:38.922Z,17.2
2015-09-06T15:28:40.729Z,17.2
2015-09-06T15:33:43.019Z,17.2
2015-09-06T15:38:45.169Z,17.2
2015-09-06T15:43:47.319Z,17.2
2015-09-06T15:48:49.438Z,17.2
2015-09-06T15:53:51.558Z,17.2
2015-09-06T15:58:53.723Z,17.2
2015-09-06T16:03:55.374Z,17.1
2015-09-06T16:08:57.523Z,17
2015-09-06T16:14:00.081Z,17
2015-09-06T16:19:02.263Z,16.8
2015-09-06T16:24:05.397Z,16.9
2015-09-06T16:29:07.610Z,16.9
2015-09-06T16:34:09.667Z,16.8
2015-09-06T16:39:11.786Z,16.8
2015-09-06T16:44:13.968Z,16.8
2015-09-06T16:49:15.632Z,16.8
2015-09-06T16:54:19.095Z,16.8
2015-09-06T16:59:21.136Z,16.8
2015-09-06T17:04:22.567Z,16.8
2015-09-06T17:09:24.733Z,16.6
2015-09-06T17:14:26.884Z,16.5
2015-09-06T17:19:29.722Z,16.4
2015-09-06T17:24:31.201Z,16.4
2015-09-06T17:29:33.383Z,16.2
2015-09-06T17:34:35.063Z,16.2
2015-09-06T17:39:37.558Z,16.1
2015-09-06T17:44:39.583Z,16.1
2015-09-06T17:49:42.187Z,16
2015-09-06T17:54:44.916Z,16
2015-09-06T17:59:47.098Z,15.8
2015-09-06T18:04:49.699Z,15.8
2015-09-06T18:09:51.818Z,15.6
2015-09-06T18:14:53.484Z,15.6
2015-09-06T18:19:55.556Z,15.4
2015-09-06T18:24:57.317Z,15.4
2015-09-06T18:29:59.936Z,15.3
2015-09-06T18:35:03.258Z,15.2
2015-09-06T18:40:03.846Z,15.2
2015-09-06T18:45:07.448Z,15
2015-09-06T18:50:09.130Z,14.9
2015-09-06T18:55:12.250Z,14.9
2015-09-06T19:00:13.463Z,14.8
2015-09-06T19:05:15.676Z,14.8
2015-09-06T19:10:18.935Z,14.6
2015-09-06T19:15:21.165Z,14.6
2015-09-06T19:20:23.330Z,14.4
2015-09-06T19:25:25.463Z,14.4
2015-09-06T19:30:28.425Z,14.3
2015-09-06T19:35:30.576Z,14.2
2015-09-06T19:40:32.726Z,14.2
2015-09-06T19:45:35.064Z,14.1
2015-09-06T19:50:36.543Z,13.9
2015-09-06T19:55:39.428Z,14.1
2015-09-06T20:00:41.390Z,13.9
2015-09-06T20:05:43.463Z,13.8
2015-09-06T20:10:45.660Z,13.8
2015-09-06T20:15:47.810Z,13.8
2015-09-06T20:20:50.007Z,13.8
2015-09-06T20:25:52.127Z,13.9
2015-09-06T20:30:54.231Z,13.7
2015-09-06T20:35:55.912Z,13.8
2015-09-06T20:40:59.546Z,13.9
2015-09-06T20:46:00.651Z,13.8
2015-09-06T20:51:02.801Z,13.8
2015-09-06T20:56:04.996Z,13.7
2015-09-06T21:01:07.084Z,13.8
2015-09-06T21:06:09.203Z,13.9
2015-09-06T21:11:11.322Z,13.8
2015-09-06T21:16:13.504Z,13.8
2015-09-06T21:21:15.530Z,13.8
2015-09-06T21:26:18.320Z,13.6
2015-09-06T21:31:20.715Z,13.6
2015-09-06T21:36:23.267Z,13.6
2015-09-06T21:41:25.520Z,13.5
2015-09-06T21:46:27.658Z,13.6
2015-09-06T21:51:29.831Z,13.6
2015-09-06T21:56:31.969Z,13.6
2015-09-06T22:01:34.214Z,13.6
2015-09-06T22:06:35.849Z,13.6
2015-09-06T22:11:38.061Z,13.6
2015-09-06T22:16:40.460Z,13.5
2015-09-06T22:21:42.954Z,13.5
2015-09-06T22:26:44.870Z,13.5
2015-09-06T22:31:47.021Z,13.4
2015-09-06T22:36:49.172Z,13.3
2015-09-06T22:41:51.384Z,13.3
2015-09-06T22:46:53.472Z,13.2
2015-09-06T22:51:55.654Z,13.1
2015-09-06T22:56:57.320Z,13.2
2015-09-06T23:02:00.033Z,13.1
2015-09-06T23:07:02.105Z,13
2015-09-06T23:12:04.318Z,13.1
2015-09-06T23:17:06.406Z,13
2015-09-06T23:22:08.572Z,13.1
2015-09-06T23:27:10.704Z,13.1
2015-09-06T23:32:12.839Z,12.9
2015-09-06T23:37:14.974Z,12.9
2015-09-06T23:42:16.718Z,12.8
2015-09-06T23:47:18.853Z,12.8
2015-09-06T23:52:21.426Z,12.6
2015-09-06T23:57:23.107Z,12.6
